Time;durP1;ratioP1;P1;durP2;ratioP2;P2;SDS_P1;SDS_P2;PMS_P1;PMS_P2;Temp;Humidity;BMP_temperature;BMP_pressure;BME280_temperature;BME280_humidity;BME280_pressure;Samples;Min_cycle;Max_cycle;Signal;HPM_P1;HPM_P2
2023/09/05 00:01:58;;;;;;;4.68;2.00;;;23.00;54.80;;;;;;5015675;28;20109;-70
2023/09/05 00:04:24;;;;;;;8.13;2.30;;;23.00;55.00;;;;;;5015531;28;20022;-70
2023/09/05 00:06:50;;;;;;;6.28;2.22;;;23.00;54.90;;;;;;5015517;28;20038;-70
2023/09/05 00:09:18;;;;;;;4.30;2.45;;;23.00;55.00;;;;;;5015740;28;20478;-70
2023/09/05 00:11:47;;;;;;;7.03;2.20;;;22.90;54.90;;;;;;5014644;28;20042;-70
2023/09/05 00:14:13;;;;;;;3.03;1.92;;;22.90;55.30;;;;;;5015202;28;20033;-70
2023/09/05 00:16:39;;;;;;;4.15;1.70;;;22.90;55.70;;;;;;5015587;28;20030;-70
2023/09/05 00:19:05;;;;;;;4.50;2.97;;;22.80;55.50;;;;;;5015576;28;20031;-70
2023/09/05 00:21:31;;;;;;;4.20;2.00;;;22.80;55.80;;;;;;5015300;28;20483;-70
2023/09/05 00:24:45;;;;;;;2.65;1.73;;;22.70;56.00;;;;;;5014957;28;20100;-70
2023/09/05 00:27:14;;;;;;;4.15;1.90;;;22.70;56.30;;;;;;5006387;28;20056;-70
2023/09/05 00:29:41;;;;;;;3.60;2.00;;;22.70;56.30;;;;;;5015113;28;20096;-70
2023/09/05 00:32:07;;;;;;;5.13;2.10;;;22.60;56.10;;;;;;5015133;28;20033;-70
2023/09/05 00:34:36;;;;;;;5.60;2.38;;;22.60;56.10;;;;;;5015516;28;20105;-70
2023/09/05 00:37:03;;;;;;;4.70;2.60;;;22.60;56.20;;;;;;5014994;28;20026;-70
2023/09/05 00:39:29;;;;;;;2.70;2.00;;;22.60;56.40;;;;;;5014850;28;20041;-70
2023/09/05 00:41:56;;;;;;;2.35;2.10;;;22.60;56.50;;;;;;5014929;28;20084;-70
2023/09/05 00:44:25;;;;;;;4.82;2.05;;;22.60;56.60;;;;;;5014709;28;20026;-69
2023/09/05 00:46:52;;;;;;;12.40;3.40;;;22.60;57.50;;;;;;5014979;28;20474;-70
2023/09/05 00:49:22;;;;;;;4.68;2.15;;;22.50;56.90;;;;;;5014836;28;20025;-70
2023/09/05 00:51:52;;;;;;;6.38;2.03;;;22.50;57.10;;;;;;5014619;28;20026;-69
2023/09/05 00:54:18;;;;;;;3.05;2.20;;;22.50;57.40;;;;;;5014609;28;20026;-70
2023/09/05 00:56:45;;;;;;;4.53;2.08;;;22.50;57.80;;;;;;5014581;28;20539;-70
2023/09/05 00:59:11;;;;;;;4.00;2.08;;;22.40;57.30;;;;;;5012162;28;20022;-70
2023/09/05 01:01:37;;;;;;;3.22;1.90;;;22.50;57.20;;;;;;5014658;28;20022;-70
2023/09/05 01:04:03;;;;;;;3.00;1.98;;;22.50;57.10;;;;;;5014415;28;20030;-70
2023/09/05 01:06:51;;;;;;;3.00;1.90;;;22.40;57.30;;;;;;5014478;28;20548;-70
2023/09/05 01:09:29;;;;;;;9.07;2.08;;;22.50;57.30;;;;;;5014578;28;20084;-70
2023/09/05 01:11:56;;;;;;;6.13;2.72;;;22.40;57.00;;;;;;5014488;28;20421;-70
2023/09/05 01:14:22;;;;;;;6.25;2.00;;;22.40;56.80;;;;;;5014459;28;20026;-70
2023/09/05 01:16:47;;;;;;;4.72;2.05;;;22.40;56.70;;;;;;5014537;28;20377;-70
2023/09/05 01:19:16;;;;;;;4.35;2.08;;;22.40;56.80;;;;;;5014175;28;20458;-70
2023/09/05 01:21:58;;;;;;;5.50;1.90;;;22.40;57.30;;;;;;5014124;28;20414;-69
2023/09/05 01:24:24;;;;;;;5.60;2.25;;;22.40;57.70;;;;;;5014158;28;20025;-70
2023/09/05 01:26:52;;;;;;;4.55;1.98;;;22.40;57.50;;;;;;5014235;28;20109;-70
2023/09/05 01:29:25;;;;;;;7.50;2.50;;;22.30;57.90;;;;;;5014032;28;20379;-70
2023/09/05 01:31:53;;;;;;;6.82;2.20;;;22.30;57.80;;;;;;5014102;28;20033;-70
2023/09/05 01:34:18;;;;;;;3.35;1.88;;;22.30;58.10;;;;;;5013935;28;20033;-70
2023/09/05 01:36:44;;;;;;;4.00;1.98;;;22.30;58.20;;;;;;5014115;28;20022;-70
2023/09/05 01:39:10;;;;;;;6.07;1.90;;;22.20;58.20;;;;;;5012455;28;20032;-70
2023/09/05 01:41:35;;;;;;;12.00;2.30;;;22.30;58.30;;;;;;5013789;28;20076;-70
2023/09/05 01:44:01;;;;;;;7.25;2.10;;;22.20;58.10;;;;;;5014023;28;20032;-70
2023/09/05 01:46:27;;;;;;;7.10;2.15;;;22.20;58.10;;;;;;5013780;28;20030;-69
2023/09/05 01:48:52;;;;;;;4.78;1.80;;;22.20;58.00;;;;;;5013497;28;20029;-70
2023/09/05 01:51:18;;;;;;;2.35;1.85;;;22.20;58.20;;;;;;5013720;28;20034;-70
2023/09/05 01:53:44;;;;;;;4.85;1.90;;;22.20;57.90;;;;;;5013645;28;20018;-70
2023/09/05 01:56:09;;;;;;;8.20;1.80;;;22.20;58.10;;;;;;5013581;28;20390;-70
2023/09/05 01:58:35;;;;;;;4.97;1.92;;;22.10;58.20;;;;;;5013474;28;20025;-70
2023/09/05 02:01:02;;;;;;;4.53;1.92;;;22.10;58.40;;;;;;5013495;28;20398;-70
2023/09/05 02:03:28;;;;;;;4.20;2.08;;;22.10;58.60;;;;;;5013306;28;20080;-70
2023/09/05 02:05:54;;;;;;;3.33;2.08;;;22.10;58.70;;;;;;5013470;28;20026;-70
2023/09/05 02:08:21;;;;;;;4.88;2.30;;;22.10;58.90;;;;;;5013364;28;20478;-70
2023/09/05 02:10:46;;;;;;;4.43;2.13;;;22.00;59.10;;;;;;5013375;28;20141;-70
2023/09/05 02:13:17;;;;;;;5.60;2.42;;;22.10;59.30;;;;;;5013178;28;20210;-70
2023/09/05 02:15:43;;;;;;;3.58;1.80;;;22.00;59.40;;;;;;5012966;28;20414;-70
2023/09/05 02:18:10;;;;;;;3.90;1.88;;;22.00;59.40;;;;;;5013320;28;20494;-70
2023/09/05 02:20:41;;;;;;;3.20;1.83;;;21.90;59.30;;;;;;5013573;28;20030;-71
2023/09/05 02:23:07;;;;;;;4.13;1.92;;;21.90;59.40;;;;;;5013049;28;20026;-69
2023/09/05 02:25:33;;;;;;;5.88;2.00;;;21.90;59.70;;;;;;5013146;28;20461;-70
2023/09/05 02:27:59;;;;;;;3.85;2.03;;;21.90;59.80;;;;;;5013263;28;20044;-70
2023/09/05 02:30:26;;;;;;;2.38;1.80;;;21.80;59.90;;;;;;5013233;28;20057;-70
2023/09/05 02:32:54;;;;;;;3.38;1.98;;;21.80;60.00;;;;;;5013218;28;20102;-70
2023/09/05 02:35:27;;;;;;;5.63;1.83;;;21.80;59.90;;;;;;5013797;28;20089;-70
2023/09/05 02:37:54;;;;;;;5.97;2.25;;;21.80;60.20;;;;;;5017193;28;20427;-70
2023/09/05 02:40:20;;;;;;;3.05;2.25;;;21.70;60.30;;;;;;5017426;28;20057;-70
2023/09/05 02:42:46;;;;;;;4.60;2.10;;;21.70;60.40;;;;;;5017208;28;20030;-71
2023/09/05 02:45:13;;;;;;;2.65;2.03;;;21.70;60.60;;;;;;5017145;28;20355;-70
2023/09/05 02:47:39;;;;;;;4.47;2.30;;;21.70;60.60;;;;;;5016935;28;20028;-69
2023/09/05 02:50:06;;;;;;;4.72;1.95;;;21.60;61.00;;;;;;5017054;28;20381;-70
2023/09/05 02:52:33;;;;;;;5.60;2.47;;;21.70;61.40;;;;;;5017200;28;20071;-70
2023/09/05 02:54:59;;;;;;;4.65;2.20;;;21.60;61.60;;;;;;5016804;28;20056;-70
2023/09/05 02:57:25;;;;;;;4.32;2.40;;;21.60;61.80;;;;;;5015619;28;20068;-70
2023/09/05 02:59:53;;;;;;;3.47;2.25;;;21.60;61.90;;;;;;5016952;28;20029;-70
2023/09/05 03:02:22;;;;;;;5.20;2.00;;;21.50;61.70;;;;;;5016792;28;20104;-69
2023/09/05 03:04:51;;;;;;;6.55;1.80;;;21.50;61.70;;;;;;5016945;28;20022;-69
2023/09/05 03:07:20;;;;;;;3.78;1.90;;;21.50;61.50;;;;;;5016765;28;20112;-69
2023/09/05 03:09:48;;;;;;;3.63;1.98;;;21.40;61.50;;;;;;5016714;28;20520;-70
2023/09/05 03:12:15;;;;;;;4.43;2.47;;;21.40;61.70;;;;;;5016524;28;20112;-69
2023/09/05 03:14:40;;;;;;;8.10;2.25;;;21.40;61.80;;;;;;5016704;28;20053;-70
2023/09/05 03:17:09;;;;;;;3.70;1.98;;;21.40;61.90;;;;;;5016605;28;20018;-70
2023/09/05 03:19:36;;;;;;;7.15;2.42;;;21.40;62.20;;;;;;5016815;28;20033;-70
2023/09/05 03:22:02;;;;;;;4.35;2.05;;;21.40;62.20;;;;;;5016264;28;20418;-71
2023/09/05 03:24:28;;;;;;;4.18;2.08;;;21.40;62.10;;;;;;5016582;28;20084;-70
2023/09/05 03:26:54;;;;;;;4.65;2.13;;;21.30;61.80;;;;;;5016289;28;20065;-69
2023/09/05 03:29:20;;;;;;;5.47;2.05;;;21.30;61.90;;;;;;5016307;28;20022;-70
2023/09/05 03:31:45;;;;;;;5.53;2.20;;;21.30;62.00;;;;;;5016214;28;20429;-70
2023/09/05 03:34:11;;;;;;;3.97;2.25;;;21.30;61.90;;;;;;5016328;28;20030;-70
2023/09/05 03:36:37;;;;;;;4.03;2.67;;;21.30;62.50;;;;;;5016195;28;20018;-69
2023/09/05 03:39:02;;;;;;;2.83;2.08;;;21.20;63.10;;;;;;5015973;28;20026;-70
2023/09/05 03:41:28;;;;;;;6.07;2.33;;;21.20;63.10;;;;;;5015930;28;20030;-71
2023/09/05 03:43:54;;;;;;;7.38;2.17;;;21.20;63.50;;;;;;5015790;28;20374;-70
2023/09/05 03:46:20;;;;;;;3.65;2.05;;;21.10;62.70;;;;;;5015762;28;20033;-70
2023/09/05 03:48:47;;;;;;;7.60;2.35;;;21.10;62.90;;;;;;5016158;28;20470;-70
2023/09/05 03:51:13;;;;;;;4.28;2.15;;;21.10;63.10;;;;;;5015750;28;20033;-70
2023/09/05 03:53:39;;;;;;;6.55;2.20;;;21.10;63.10;;;;;;5015784;28;20027;-70
2023/09/05 03:56:05;;;;;;;4.80;1.85;;;21.00;63.70;;;;;;5015954;28;20022;-70
2023/09/05 03:58:31;;;;;;;4.78;2.13;;;21.00;63.30;;;;;;5015813;28;20390;-69
2023/09/05 04:01:02;;;;;;;8.18;2.10;;;21.00;63.40;;;;;;5015616;28;20018;-69
2023/09/05 04:03:29;;;;;;;6.18;2.00;;;21.00;63.20;;;;;;5015762;28;20101;-69
2023/09/05 04:05:55;;;;;;;3.08;2.15;;;21.00;63.60;;;;;;5015588;28;20065;-70
2023/09/05 04:08:20;;;;;;;3.83;2.13;;;21.00;63.70;;;;;;5015544;28;20053;-70
2023/09/05 04:10:46;;;;;;;4.82;2.25;;;20.90;63.80;;;;;;5015414;28;20133;-69
2023/09/05 04:13:12;;;;;;;2.22;2.03;;;21.00;64.10;;;;;;5015564;28;20533;-70
2023/09/05 04:15:37;;;;;;;4.18;2.20;;;20.90;64.10;;;;;;5015438;28;20051;-70
2023/09/05 04:18:03;;;;;;;4.95;2.20;;;20.90;64.30;;;;;;5015436;28;20097;-70
2023/09/05 04:20:31;;;;;;;2.90;2.03;;;20.90;64.60;;;;;;5015351;28;20475;-70
2023/09/05 04:22:57;;;;;;;3.53;2.30;;;20.90;64.40;;;;;;5015255;28;20018;-70
2023/09/05 04:25:24;;;;;;;3.92;2.20;;;20.90;64.50;;;;;;5015343;28;20022;-70
2023/09/05 04:27:50;;;;;;;2.97;2.20;;;20.90;64.70;;;;;;5015266;28;20536;-70
2023/09/05 04:30:16;;;;;;;6.80;2.20;;;20.90;64.60;;;;;;5015264;28;20028;-69
2023/09/05 04:32:43;;;;;;;5.10;2.47;;;20.90;64.50;;;;;;5015056;28;20394;-70
2023/09/05 04:35:08;;;;;;;5.78;2.03;;;20.80;64.70;;;;;;5015113;28;20022;-70
2023/09/05 04:37:34;;;;;;;4.43;2.00;;;20.80;64.70;;;;;;5014859;28;20458;-70
2023/09/05 04:40:03;;;;;;;6.35;2.25;;;20.80;65.20;;;;;;5014728;28;20041;-70
2023/09/05 04:42:29;;;;;;;4.90;2.40;;;20.80;65.20;;;;;;5014944;28;20022;-70
2023/09/05 04:44:55;;;;;;;5.72;2.28;;;20.80;65.30;;;;;;5014879;28;20394;-70
2023/09/05 04:47:26;;;;;;;5.53;2.20;;;20.80;65.30;;;;;;5014709;28;20034;-69
2023/09/05 04:49:53;;;;;;;5.60;2.20;;;20.70;65.50;;;;;;5014821;28;20048;-70
2023/09/05 04:52:21;;;;;;;4.45;1.95;;;20.70;65.70;;;;;;5014706;28;20057;-70
2023/09/05 04:54:48;;;;;;;6.55;2.40;;;20.70;65.80;;;;;;5014618;28;20026;-70
2023/09/05 04:57:14;;;;;;;5.82;2.03;;;20.70;65.70;;;;;;5014600;28;20561;-70
2023/09/05 04:59:43;;;;;;;4.82;2.20;;;20.70;65.70;;;;;;5014171;28;20026;-70
2023/09/05 05:02:09;;;;;;;3.85;2.10;;;20.60;65.50;;;;;;5014491;28;20363;-70
2023/09/05 05:04:35;;;;;;;4.97;2.35;;;20.60;65.40;;;;;;5014521;28;20053;-70
2023/09/05 05:07:01;;;;;;;6.20;2.30;;;20.70;65.60;;;;;;5014652;28;20030;-70
2023/09/05 05:09:26;;;;;;;4.72;2.10;;;20.70;66.00;;;;;;5014250;28;20026;-70
2023/09/05 05:11:52;;;;;;;6.05;2.17;;;20.60;65.80;;;;;;5014415;28;20034;-69
2023/09/05 05:14:18;;;;;;;4.38;2.30;;;20.60;65.70;;;;;;5014440;28;20385;-70
2023/09/05 05:16:44;;;;;;;3.63;1.90;;;20.60;65.90;;;;;;5014267;28;20030;-69
2023/09/05 05:19:10;;;;;;;5.05;2.25;;;20.70;66.10;;;;;;5014307;28;20084;-70
2023/09/05 05:21:38;;;;;;;4.95;1.83;;;20.70;66.20;;;;;;5014528;28;20026;-70
2023/09/05 05:24:05;;;;;;;4.82;2.25;;;20.70;66.10;;;;;;5014148;28;20405;-70
2023/09/05 05:26:30;;;;;;;3.22;2.20;;;20.70;66.20;;;;;;5014214;28;20033;-70
2023/09/05 05:28:56;;;;;;;3.75;2.28;;;20.70;66.70;;;;;;5013902;28;20022;-71
2023/09/05 05:31:22;;;;;;;4.22;2.20;;;20.60;67.00;;;;;;5014050;28;20018;-70
2023/09/05 05:33:48;;;;;;;5.53;2.30;;;20.70;67.30;;;;;;5013903;28;20161;-69
2023/09/05 05:36:14;;;;;;;5.00;1.95;;;20.70;66.30;;;;;;5013917;28;20084;-70
2023/09/05 05:38:40;;;;;;;4.35;2.33;;;20.70;65.60;;;;;;5014060;28;20101;-70
2023/09/05 05:41:09;;;;;;;4.45;1.92;;;20.80;65.90;;;;;;5014016;28;20057;-70
2023/09/05 05:43:35;;;;;;;3.40;1.95;;;20.80;66.50;;;;;;5013638;28;20048;-70
2023/09/05 05:46:01;;;;;;;2.55;1.80;;;20.80;66.70;;;;;;5013666;28;20030;-69
2023/09/05 05:48:27;;;;;;;5.80;2.10;;;20.90;65.70;;;;;;5013599;28;20096;-68
2023/09/05 05:50:53;;;;;;;6.43;2.00;;;20.90;65.60;;;;;;5013590;28;20025;-70
2023/09/05 05:53:23;;;;;;;5.35;2.17;;;20.90;66.10;;;;;;5013842;28;20060;-70
2023/09/05 05:55:49;;;;;;;3.30;2.10;;;20.90;66.20;;;;;;5013642;28;20050;-69
2023/09/05 05:58:15;;;;;;;3.72;2.10;;;21.00;66.40;;;;;;5013416;28;20033;-70
2023/09/05 06:00:45;;;;;;;2.72;1.92;;;21.00;66.20;;;;;;5013453;28;20025;-70
2023/09/05 06:03:15;;;;;;;5.20;2.40;;;21.00;66.50;;;;;;5013525;28;20022;-70
2023/09/05 06:05:41;;;;;;;6.07;2.20;;;21.00;66.10;;;;;;5013700;28;20442;-69
2023/09/05 06:08:07;;;;;;;4.68;2.33;;;21.00;66.60;;;;;;5013477;28;20056;-70
2023/09/05 06:10:32;;;;;;;6.35;2.60;;;21.10;67.20;;;;;;5012498;28;20104;-70
2023/09/05 06:12:58;;;;;;;4.20;2.47;;;21.10;67.20;;;;;;5013376;28;20022;-70
2023/09/05 06:15:24;;;;;;;4.78;3.08;;;21.10;67.00;;;;;;5013355;28;20057;-70
2023/09/05 06:17:49;;;;;;;5.32;2.17;;;21.10;67.20;;;;;;5013550;28;20022;-70
2023/09/05 06:20:16;;;;;;;4.05;2.20;;;21.20;67.30;;;;;;5013235;28;20106;-69
2023/09/05 06:22:42;;;;;;;7.88;2.63;;;21.20;66.90;;;;;;5013361;28;20025;-70
2023/09/05 06:25:08;;;;;;;3.38;2.20;;;21.20;66.90;;;;;;5013203;28;20030;-70
2023/09/05 06:27:34;;;;;;;6.00;2.60;;;21.30;67.20;;;;;;5013261;28;20095;-70
2023/09/05 06:29:59;;;;;;;7.82;3.17;;;21.30;67.10;;;;;;5013275;28;20385;-70
2023/09/05 06:32:25;;;;;;;3.90;2.55;;;21.30;67.10;;;;;;5013554;28;20029;-69
2023/09/05 06:34:51;;;;;;;4.22;2.83;;;21.40;67.50;;;;;;5013366;28;20026;-69
2023/09/05 06:37:17;;;;;;;6.43;2.80;;;21.40;67.70;;;;;;5013172;28;20065;-69
2023/09/05 06:39:42;;;;;;;3.67;1.95;;;21.40;67.80;;;;;;5013072;28;20017;-70
2023/09/05 06:42:09;;;;;;;5.07;2.30;;;21.50;67.30;;;;;;5013120;28;20500;-70
2023/09/05 06:44:34;;;;;;;4.95;2.83;;;21.60;66.00;;;;;;5013010;28;20015;-70
2023/09/05 06:47:00;;;;;;;3.67;2.30;;;21.60;65.20;;;;;;5012867;28;20053;-70
2023/09/05 06:49:26;;;;;;;6.40;2.50;;;21.60;65.00;;;;;;5012780;28;20097;-70
2023/09/05 06:51:52;;;;;;;9.68;2.75;;;21.70;64.50;;;;;;5012988;28;20060;-70
2023/09/05 06:54:18;;;;;;;5.53;2.08;;;21.70;64.60;;;;;;5013110;28;20036;-70
2023/09/05 06:56:43;;;;;;;3.30;2.10;;;21.70;64.80;;;;;;5012974;28;20026;-70
2023/09/05 06:59:16;;;;;;;4.82;2.17;;;21.80;65.30;;;;;;5012599;28;20104;-70
2023/09/05 07:01:46;;;;;;;3.17;2.05;;;21.90;63.60;;;;;;5012963;28;20053;-70
2023/09/05 07:04:13;;;;;;;5.30;2.75;;;22.00;62.60;;;;;;5013061;28;20037;-70
2023/09/05 07:06:39;;;;;;;6.68;2.78;;;22.00;61.90;;;;;;5013012;28;20478;-69
2023/09/05 07:09:08;;;;;;;4.35;2.20;;;22.00;62.60;;;;;;5013053;28;20105;-70
2023/09/05 07:11:34;;;;;;;3.42;2.30;;;22.00;62.90;;;;;;5012632;28;20520;-71
2023/09/05 07:14:00;;;;;;;5.15;2.35;;;22.10;62.70;;;;;;5012876;28;20026;-69
2023/09/05 07:16:26;;;;;;;3.53;2.10;;;22.20;62.20;;;;;;5013024;28;20028;-69
2023/09/05 07:18:52;;;;;;;4.18;2.47;;;22.20;62.30;;;;;;5013037;28;20030;-70
2023/09/05 07:21:17;;;;;;;3.25;2.20;;;22.20;62.80;;;;;;5013517;28;20108;-70
2023/09/05 07:23:43;;;;;;;6.53;2.20;;;22.30;62.00;;;;;;5016388;28;20029;-70
2023/09/05 07:26:09;;;;;;;5.18;2.08;;;22.30;61.70;;;;;;5016101;28;20026;-70
2023/09/05 07:28:34;;;;;;;3.03;2.28;;;22.30;62.00;;;;;;5016209;28;20044;-70
2023/09/05 07:31:03;;;;;;;10.43;2.25;;;22.30;62.30;;;;;;5016237;28;20454;-70
2023/09/05 07:33:29;;;;;;;6.97;2.38;;;22.40;62.10;;;;;;5016446;28;20028;-70
2023/09/05 07:35:55;;;;;;;3.33;2.20;;;22.40;62.50;;;;;;5016253;28;20466;-71
2023/09/05 07:38:21;;;;;;;5.80;2.22;;;22.40;62.90;;;;;;5016064;28;20018;-70
2023/09/05 07:41:03;;;;;;;6.78;2.80;;;22.50;62.40;;;;;;5015790;28;20061;-70
2023/09/05 07:43:30;;;;;;;;;;;22.50;61.50;;;;;;5016550;28;20041;-69
2023/09/05 07:45:55;;;;;;;3.15;2.20;;;22.50;61.40;;;;;;5015903;28;19940;-70
2023/09/05 07:48:21;;;;;;;5.05;2.22;;;22.50;61.10;;;;;;5016118;28;20549;-70
2023/09/05 07:50:47;;;;;;;6.03;2.58;;;22.60;61.40;;;;;;5015971;28;20064;-69
2023/09/05 07:53:13;;;;;;;3.58;2.60;;;22.50;61.50;;;;;;5015817;28;20097;-69
2023/09/05 07:55:39;;;;;;;4.35;2.80;;;22.60;60.40;;;;;;5015953;28;20018;-70
2023/09/05 07:58:05;;;;;;;6.45;2.85;;;22.60;60.10;;;;;;5015903;28;20165;-71
2023/09/05 08:00:31;;;;;;;3.33;2.40;;;22.60;60.10;;;;;;5015426;28;20101;-70
2023/09/05 08:02:58;;;;;;;6.05;2.30;;;22.60;60.40;;;;;;5015747;28;20030;-70
2023/09/05 08:05:24;;;;;;;7.20;2.42;;;22.70;61.10;;;;;;5014205;28;20022;-69
2023/09/05 08:07:50;;;;;;;4.97;2.45;;;22.70;60.90;;;;;;5015411;28;20038;-70
2023/09/05 08:10:16;;;;;;;5.13;2.60;;;22.80;60.60;;;;;;5015359;28;20479;-70
2023/09/05 08:12:42;;;;;;;3.90;2.50;;;22.80;61.60;;;;;;5015560;28;20025;-69
2023/09/05 08:15:09;;;;;;;5.43;2.83;;;22.80;61.70;;;;;;5015616;28;20029;-69
2023/09/05 08:17:35;;;;;;;3.30;2.45;;;22.90;61.50;;;;;;5014307;28;20529;-69
2023/09/05 08:20:03;;;;;;;5.43;2.40;;;22.90;60.30;;;;;;5015585;28;20057;-70
2023/09/05 08:22:29;;;;;;;3.40;2.20;;;23.00;59.70;;;;;;5015139;28;20050;-69
2023/09/05 08:24:55;;;;;;;4.07;2.42;;;23.00;59.80;;;;;;5015581;28;20474;-69
2023/09/05 08:27:28;;;;;;;6.93;2.45;;;23.00;59.50;;;;;;5015161;28;20037;-69
2023/09/05 08:29:55;;;;;;;3.00;2.30;;;22.90;59.10;;;;;;5015332;28;20104;-69
2023/09/05 08:32:21;;;;;;;5.13;2.65;;;23.00;60.20;;;;;;5015210;28;20381;-69
2023/09/05 08:34:47;;;;;;;4.20;2.38;;;23.00;60.80;;;;;;5014372;28;20105;-69
2023/09/05 08:37:13;;;;;;;3.13;2.55;;;23.10;60.80;;;;;;5015050;28;20101;-68
2023/09/05 08:39:38;;;;;;;6.20;2.95;;;23.20;61.30;;;;;;5015028;28;20053;-70
2023/09/05 08:42:06;;;;;;;5.82;2.70;;;23.20;61.00;;;;;;5015050;28;20029;-69
2023/09/05 08:44:43;;;;;;;6.35;2.42;;;23.30;61.10;;;;;;5015020;28;20022;-69
2023/09/05 08:47:09;;;;;;;4.05;2.60;;;23.40;60.90;;;;;;5014769;28;20501;-69
2023/09/05 08:49:35;;;;;;;3.17;2.50;;;23.40;61.30;;;;;;5014403;28;20034;-69
2023/09/05 08:52:04;;;;;;;7.35;2.60;;;23.50;61.90;;;;;;5014427;28;20573;-69
2023/09/05 08:54:30;;;;;;;6.90;2.90;;;23.60;62.10;;;;;;5014524;28;20030;-69
2023/09/05 08:57:02;;;;;;;6.50;2.47;;;23.60;61.20;;;;;;5014290;28;20034;-70
2023/09/05 08:59:31;;;;;;;3.03;2.28;;;23.60;60.40;;;;;;5014564;28;20459;-70
2023/09/05 09:01:59;;;;;;;3.15;2.60;;;23.70;59.30;;;;;;5014580;28;20061;-69
2023/09/05 09:04:26;;;;;;;4.07;2.33;;;23.80;59.70;;;;;;5014259;28;20049;-70
2023/09/05 09:06:57;;;;;;;6.57;2.28;;;23.80;58.20;;;;;;5014190;28;20068;-70
2023/09/05 09:09:34;;;;;;;4.53;2.75;;;23.90;57.50;;;;;;5014268;28;20114;-69
2023/09/05 09:12:00;;;;;;;4.75;2.65;;;24.00;57.50;;;;;;5014567;28;20042;-69
2023/09/05 09:14:26;;;;;;;3.95;2.67;;;24.00;57.20;;;;;;5014367;28;20540;-69
2023/09/05 09:16:52;;;;;;;4.00;2.30;;;24.10;57.40;;;;;;5014207;28;20038;-69
2023/09/05 09:19:18;;;;;;;3.85;2.53;;;24.20;56.70;;;;;;5014172;28;20018;-69
2023/09/05 09:21:46;;;;;;;4.55;2.53;;;24.30;56.40;;;;;;5014096;28;20181;-69
2023/09/05 09:24:15;;;;;;;5.53;2.83;;;24.30;55.40;;;;;;5014155;28;20064;-69
2023/09/05 09:26:42;;;;;;;3.80;2.63;;;24.30;54.80;;;;;;5013848;28;20088;-69
2023/09/05 09:29:09;;;;;;;6.50;2.65;;;24.40;54.60;;;;;;5012651;28;20497;-70
2023/09/05 09:31:36;;;;;;;4.05;2.80;;;24.40;55.00;;;;;;5013947;28;20435;-70
2023/09/05 09:34:02;;;;;;;3.53;2.47;;;24.50;55.00;;;;;;5013898;28;20022;-70
2023/09/05 09:36:34;;;;;;;5.07;2.75;;;24.60;53.60;;;;;;5013872;28;20112;-69
2023/09/05 09:39:11;;;;;;;5.28;2.55;;;24.60;54.10;;;;;;5013889;28;20026;-69
2023/09/05 09:41:47;;;;;;;3.88;2.88;;;24.70;55.10;;;;;;5013532;28;20504;-70
2023/09/05 09:44:34;;;;;;;4.25;2.90;;;24.70;54.80;;;;;;5013589;28;20425;-69
2023/09/05 09:47:02;;;;;;;3.58;2.83;;;24.80;53.80;;;;;;5013460;28;20042;-69
2023/09/05 09:49:29;;;;;;;3.95;2.85;;;24.90;52.60;;;;;;5013756;28;20038;-70
2023/09/05 09:51:57;;;;;;;6.15;2.65;;;24.90;51.80;;;;;;5013713;28;20378;-69
2023/09/05 09:54:53;;;;;;;3.45;2.92;;;25.00;52.30;;;;;;5013554;28;20045;-70
2023/09/05 09:57:38;;;;;;;3.45;2.53;;;25.00;52.40;;;;;;5012385;28;20045;-69
2023/09/05 10:00:15;;;;;;;6.28;2.80;;;25.10;53.70;;;;;;5013496;28;20049;-70
2023/09/05 10:02:45;;;;;;;9.02;2.90;;;25.10;52.50;;;;;;5013440;28;20049;-70
2023/09/05 10:05:12;;;;;;;3.35;2.55;;;25.20;51.00;;;;;;5013502;28;20022;-69
2023/09/05 10:07:38;;;;;;;4.90;2.90;;;25.30;51.00;;;;;;5013308;28;20033;-70
2023/09/05 10:10:09;;;;;;;4.13;2.50;;;25.30;49.90;;;;;;5013318;28;20069;-69
2023/09/05 10:12:36;;;;;;;5.03;2.60;;;25.40;49.90;;;;;;5012100;28;20490;-69
2023/09/05 10:15:04;;;;;;;3.58;2.55;;;25.40;50.40;;;;;;5013869;28;20096;-69
2023/09/05 10:17:33;;;;;;;5.15;2.80;;;25.50;50.60;;;;;;5013320;28;20026;-69
2023/09/05 10:19:59;;;;;;;3.00;2.58;;;25.60;50.20;;;;;;5013277;28;20064;-70
2023/09/05 10:22:28;;;;;;;7.20;2.63;;;25.60;49.60;;;;;;5013339;28;20029;-69
2023/09/05 10:24:54;;;;;;;4.70;2.80;;;25.70;49.70;;;;;;5013120;28;20386;-69
2023/09/05 10:27:20;;;;;;;3.63;2.83;;;25.70;50.50;;;;;;5012995;28;20034;-70
2023/09/05 10:29:47;;;;;;;4.68;2.70;;;25.80;50.00;;;;;;5013034;28;20048;-69
2023/09/05 10:32:18;;;;;;;4.35;2.63;;;25.80;50.00;;;;;;5013075;28;20041;-69
2023/09/05 10:34:55;;;;;;;7.15;2.70;;;25.90;49.30;;;;;;5013043;28;20025;-69
2023/09/05 10:37:26;;;;;;;3.60;2.65;;;25.90;49.40;;;;;;5013055;28;20355;-70
2023/09/05 10:40:00;;;;;;;6.15;2.70;;;26.00;48.50;;;;;;5012814;28;20109;-69
2023/09/05 10:42:32;;;;;;;5.75;3.28;;;26.00;48.30;;;;;;5013001;28;20053;-69
2023/09/05 10:45:22;;;;;;;5.25;2.67;;;26.10;48.60;;;;;;5013067;28;20390;-70
2023/09/05 10:47:49;;;;;;;4.10;2.50;;;26.20;49.70;;;;;;5012913;28;20061;-70
2023/09/05 10:50:19;;;;;;;2.72;2.15;;;26.20;48.90;;;;;;5012917;28;20096;-68
2023/09/05 10:53:11;;;;;;;3.20;2.75;;;26.30;49.10;;;;;;5013039;28;20025;-69
2023/09/05 10:55:44;;;;;;;4.13;2.35;;;26.30;49.20;;;;;;5013119;28;20034;-69
2023/09/05 10:58:38;;;;;;;7.32;3.22;;;26.40;49.70;;;;;;5016414;28;20030;-70
2023/09/05 11:01:29;;;;;;;3.35;2.40;;;26.50;49.50;;;;;;5016572;28;20029;-70
2023/09/05 11:04:07;;;;;;;5.65;2.42;;;26.60;50.30;;;;;;5016653;28;20458;-69
2023/09/05 11:06:42;;;;;;;4.40;2.67;;;26.70;50.20;;;;;;5016753;28;20053;-70
2023/09/05 11:09:08;;;;;;;4.75;2.38;;;26.70;50.10;;;;;;5016269;28;20030;-70
2023/09/05 11:11:37;;;;;;;3.35;2.50;;;26.70;48.50;;;;;;5016012;28;20050;-69
2023/09/05 11:14:07;;;;;;;2.78;2.22;;;26.80;48.50;;;;;;5016298;28;20062;-70
2023/09/05 11:16:47;;;;;;;3.53;2.35;;;26.90;48.40;;;;;;5016378;28;20057;-70
2023/09/05 11:19:29;;;;;;;2.50;2.10;;;26.90;48.60;;;;;;5016305;28;20026;-70
2023/09/05 11:22:34;;;;;;;8.48;2.60;;;27.00;47.90;;;;;;5015913;28;20022;-69
2023/09/05 11:25:03;;;;;;;3.35;2.20;;;27.10;47.60;;;;;;4975409;28;20163;-69
2023/09/05 11:27:30;;;;;;;5.07;2.25;;;27.20;48.10;;;;;;4975274;28;20038;-70
2023/09/05 11:30:01;;;;;;;4.85;1.90;;;27.20;48.60;;;;;;4995885;28;20034;-70
2023/09/05 11:32:32;;;;;;;4.70;2.20;;;27.30;48.80;;;;;;5016168;28;20053;-69
2023/09/05 11:34:58;;;;;;;3.13;2.15;;;27.40;48.00;;;;;;5016088;28;20593;-70
2023/09/05 11:37:25;;;;;;;4.38;2.40;;;27.40;48.00;;;;;;5016128;28;20057;-69
2023/09/05 11:39:51;;;;;;;5.20;2.67;;;;;;;;;;5015873;28;20103;-69
2023/09/05 11:42:19;;;;;;;3.00;2.20;;;27.50;47.20;;;;;;5015629;28;20105;-69
2023/09/05 11:44:44;;;;;;;2.50;2.28;;;27.60;48.40;;;;;;5016039;28;20057;-69
2023/09/05 11:47:11;;;;;;;2.90;2.30;;;27.70;48.30;;;;;;5015828;28;20504;-70
2023/09/05 11:49:37;;;;;;;4.35;2.40;;;27.70;47.70;;;;;;5015881;28;20142;-69
2023/09/05 11:52:04;;;;;;;5.25;2.40;;;27.80;48.10;;;;;;5015795;28;20112;-70
2023/09/05 11:54:33;;;;;;;4.78;2.22;;;27.80;48.00;;;;;;5015786;28;20425;-70
2023/09/05 11:56:59;;;;;;;2.60;2.17;;;27.90;48.40;;;;;;5015816;28;20033;-69
2023/09/05 11:59:25;;;;;;;3.30;2.35;;;27.90;47.80;;;;;;5015512;28;20379;-69
2023/09/05 12:01:52;;;;;;;3.22;2.40;;;27.90;45.70;;;;;;5015718;28;20216;-70
2023/09/05 12:04:18;;;;;;;3.80;2.53;;;27.90;46.70;;;;;;5015495;28;20032;-69
2023/09/05 12:06:51;;;;;;;6.07;2.15;;;27.90;46.50;;;;;;5015412;28;20045;-69
2023/09/05 12:09:18;;;;;;;2.97;2.22;;;27.90;45.20;;;;;;5014109;28;20478;-69
2023/09/05 12:11:44;;;;;;;3.17;2.30;;;27.90;45.70;;;;;;5015225;28;20069;-69
2023/09/05 12:14:10;;;;;;;5.63;2.45;;;27.90;45.70;;;;;;5015488;28;20396;-69
2023/09/05 12:16:36;;;;;;;4.57;2.30;;;27.90;45.60;;;;;;5015389;28;20026;-69
2023/09/05 12:19:02;;;;;;;2.97;2.00;;;28.00;43.70;;;;;;5015238;28;20022;-70
2023/09/05 12:21:41;;;;;;;3.97;2.33;;;28.00;45.20;;;;;;5015175;28;20053;-70
2023/09/05 12:24:24;;;;;;;4.53;2.38;;;28.10;44.10;;;;;;5015405;28;20022;-70
2023/09/05 12:26:52;;;;;;;4.07;2.20;;;28.10;46.20;;;;;;5015297;28;20131;-70
2023/09/05 12:29:36;;;;;;;3.83;2.20;;;28.00;44.50;;;;;;5014875;28;20478;-70
2023/09/05 12:32:02;;;;;;;5.13;2.30;;;28.10;45.50;;;;;;5013860;28;20048;-70
2023/09/05 12:34:28;;;;;;;3.95;1.95;;;28.20;45.80;;;;;;5014957;28;20026;-70
2023/09/05 12:36:53;;;;;;;4.57;2.22;;;28.20;45.20;;;;;;5015078;28;20076;-70
2023/09/05 12:39:19;;;;;;;2.67;2.00;;;28.20;44.80;;;;;;5014784;28;20026;-69
2023/09/05 12:41:46;;;;;;;2.78;2.13;;;28.20;44.40;;;;;;5014835;28;20036;-69
2023/09/05 12:44:12;;;;;;;3.30;2.30;;;28.20;45.30;;;;;;5014571;28;20104;-70
2023/09/05 12:46:38;;;;;;;3.50;2.20;;;28.20;45.30;;;;;;5014664;28;20116;-69
2023/09/05 12:49:04;;;;;;;2.55;2.00;;;28.30;45.60;;;;;;5014821;28;20026;-70
2023/09/05 12:51:30;;;;;;;5.72;2.10;;;28.30;45.70;;;;;;5014490;28;20033;-70
2023/09/05 12:53:57;;;;;;;4.88;2.10;;;28.30;47.20;;;;;;5014517;28;20394;-70